Time;durP1;ratioP1;P1;durP2;ratioP2;P2;SDS_P1;SDS_P2;PMS_P1;PMS_P2;Temp;Humidity;BMP_temperature;BMP_pressure;BME280_temperature;BME280_humidity;BME280_pressure;Samples;Min_cycle;Max_cycle;Signal;HPM_P1;HPM_P2
2022/06/24 00:01:10;;;;;;;40.35;27.50;;;;;;;;;;5015264;27;97669;-74
2022/06/24 00:03:37;;;;;;;39.50;27.85;;;;;;;;;;5020110;28;95250;-73
2022/06/24 00:06:11;;;;;;;41.92;26.90;;;;;;;;;;5019389;28;97807;-74
2022/06/24 00:08:49;;;;;;;36.85;25.67;;;;;;;;;;5010170;28;98664;-76
2022/06/24 00:11:16;;;;;;;31.25;23.38;;;;;;;;;;5011344;28;95822;-72
2022/06/24 00:13:43;;;;;;;35.50;23.83;;;;;;;;;;5013629;28;96632;-73
2022/06/24 00:16:10;;;;;;;35.28;22.63;;;;;;;;;;5010392;27;97352;-73
2022/06/24 00:18:36;;;;;;;33.72;22.85;;;;;;;;;;5010356;28;96299;-73
2022/06/24 00:21:10;;;;;;;32.63;23.15;;;;;;;;;;5007429;28;96560;-74
2022/06/24 00:23:38;;;;;;;28.02;18.33;;;;;;;;;;5011942;28;95225;-74
2022/06/24 00:26:04;;;;;;;31.05;21.17;;;;;;;;;;5007418;28;96883;-72
2022/06/24 00:28:31;;;;;;;27.80;19.63;;;;;;;;;;5008750;28;96260;-72
2022/06/24 00:30:58;;;;;;;32.55;19.33;;;;;;;;;;5011124;28;95361;-72
2022/06/24 00:33:25;;;;;;;28.67;18.58;;;;;;;;;;5013997;28;95619;-72
2022/06/24 00:35:53;;;;;;;26.42;18.17;;;;;;;;;;5017057;28;97388;-73
2022/06/24 00:38:19;;;;;;;25.60;18.17;;;;;;;;;;5011719;28;95804;-72
2022/06/24 00:40:47;;;;;;;25.10;18.05;;;;;;;;;;5007671;28;97564;-73
2022/06/24 00:43:24;;;;;;;24.90;17.58;;;;;;;;;;5000885;28;95594;-73
2022/06/24 00:45:54;;;;;;;24.33;17.20;;;;;;;;;;5012640;28;96926;-74
2022/06/24 00:48:21;;;;;;;21.73;17.38;;;;;;;;;;4990194;28;97608;-72
2022/06/24 00:50:48;;;;;;;24.92;17.27;;;;;;;;;;4993819;28;95360;-74
2022/06/24 00:53:14;;;;;;;25.05;17.08;;;;;;;;;;5012160;28;96615;-74
2022/06/24 00:55:41;;;;;;;21.92;16.80;;;;;;;;;;5013553;28;97688;-74
2022/06/24 00:58:12;;;;;;;26.65;16.60;;;;;;;;;;5012363;27;96362;-72
2022/06/24 01:00:40;;;;;;;23.08;15.82;;;;;;;;;;5017360;28;96613;-74
2022/06/24 01:03:06;;;;;;;27.35;16.23;;;;;;;;;;5010883;28;96725;-73
2022/06/24 01:05:33;;;;;;;23.33;15.30;;;;;;;;;;5015710;28;96838;-73
2022/06/24 01:08:05;;;;;;;26.65;15.30;;;;;;;;;;5021542;28;97760;-73
2022/06/24 01:10:31;;;;;;;29.35;19.92;;;;;;;;;;5001464;28;95470;-73
2022/06/24 01:12:58;;;;;;;36.80;21.80;;;;;;;;;;5012751;28;96988;-74
2022/06/24 01:15:24;;;;;;;44.72;26.88;;;;;;;;;;5006380;28;96386;-74
2022/06/24 01:17:52;;;;;;;58.25;28.40;;;;;;;;;;4997846;28;95740;-74
2022/06/24 01:20:18;;;;;;;42.63;21.60;;;;;;;;;;5006902;28;96166;-74
2022/06/24 01:22:45;;;;;;;51.60;25.73;;;;;;;;;;5009419;28;97488;-73
2022/06/24 01:25:11;;;;;;;43.65;27.02;;;;;;;;;;5013129;28;98670;-73
2022/06/24 01:27:38;;;;;;;54.97;27.13;;;;;;;;;;5013994;28;97388;-73
2022/06/24 01:30:06;;;;;;;51.97;25.90;;;;;;;;;;5022695;28;95867;-74
2022/06/24 01:32:33;;;;;;;33.22;17.65;;;;;;;;;;5011602;28;95907;-74
2022/06/24 01:35:00;;;;;;;31.02;18.40;;;;;;;;;;5008666;28;97159;-74
2022/06/24 01:37:27;;;;;;;27.92;18.10;;;;;;;;;;5010281;28;96012;-74
2022/06/24 01:39:53;;;;;;;24.13;14.18;;;;;;;;;;5005935;28;97208;-74
2022/06/24 01:42:19;;;;;;;22.92;11.75;;;;;;;;;;4997580;28;97576;-73
2022/06/24 01:44:46;;;;;;;17.27;10.73;;;;;;;;;;5002465;28;96419;-74
2022/06/24 01:47:12;;;;;;;14.50;9.05;;;;;;;;;;4992102;28;97676;-73
2022/06/24 01:49:38;;;;;;;17.10;8.27;;;;;;;;;;4995796;28;96428;-72
2022/06/24 01:52:05;;;;;;;13.98;6.65;;;;;;;;;;5026725;28;96926;-73
2022/06/24 01:54:32;;;;;;;11.75;6.43;;;;;;;;;;5009064;28;97251;-73
2022/06/24 01:56:58;;;;;;;11.75;7.03;;;;;;;;;;5009053;28;95234;-73
2022/06/24 01:59:24;;;;;;;14.75;6.93;;;;;;;;;;5010187;28;96876;-72
2022/06/24 02:01:51;;;;;;;14.05;7.05;;;;;;;;;;5011730;28;97288;-73
2022/06/24 02:04:17;;;;;;;10.85;5.85;;;;;;;;;;5012674;28;95399;-73
2022/06/24 02:06:43;;;;;;;10.07;4.90;;;;;;;;;;5017316;28;96836;-73
2022/06/24 02:09:10;;;;;;;9.70;4.85;;;;;;;;;;5015568;28;96309;-73
2022/06/24 02:14:23;;;;;;;8.10;4.35;;;;;;;;;;4995351;28;96721;-73
2022/06/24 02:16:50;;;;;;;6.05;3.30;;;;;;;;;;5010319;28;99373;-73
2022/06/24 02:19:16;;;;;;;7.68;3.50;;;;;;;;;;5007621;28;96845;-73
2022/06/24 02:21:43;;;;;;;5.15;2.67;;;;;;;;;;5021491;28;97382;-72
2022/06/24 02:24:13;;;;;;;8.68;3.20;;;;;;;;;;5017303;28;97006;-72
2022/06/24 02:26:39;;;;;;;6.03;2.95;;;;;;;;;;5021381;28;96830;-72
2022/06/24 02:29:10;;;;;;;7.97;2.90;;;;;;;;;;5017230;28;97600;-73
2022/06/24 02:31:38;;;;;;;7.72;2.83;;;;;;;;;;5023862;28;96776;-73
2022/06/24 02:34:04;;;;;;;8.48;3.58;;;;;;;;;;5017544;28;97336;-73
2022/06/24 02:36:31;;;;;;;4.75;2.90;;;;;;;;;;5015792;28;95536;-73
2022/06/24 02:38:57;;;;;;;8.50;3.05;;;;;;;;;;5013844;28;97157;-73
2022/06/24 02:41:24;;;;;;;6.28;3.13;;;;;;;;;;5012505;28;97421;-73
2022/06/24 02:43:50;;;;;;;7.40;3.72;;;;;;;;;;5013124;28;95355;-74
2022/06/24 02:46:17;;;;;;;6.72;3.28;;;;;;;;;;5003666;28;95704;-73
2022/06/24 02:48:44;;;;;;;6.60;3.00;;;;;;;;;;5024157;28;97665;-73
2022/06/24 02:51:11;;;;;;;9.38;4.03;;;;;;;;;;5013356;28;96876;-74
2022/06/24 02:53:38;;;;;;;9.77;3.70;;;;;;;;;;5013751;28;97415;-74
2022/06/24 02:56:11;;;;;;;9.35;3.60;;;;;;;;;;5003919;28;96374;-74
2022/06/24 02:58:38;;;;;;;10.63;3.40;;;;;;;;;;5014581;28;95994;-74
2022/06/24 03:01:05;;;;;;;6.93;3.58;;;;;;;;;;5024761;28;97252;-74
2022/06/24 03:03:31;;;;;;;7.45;3.35;;;;;;;;;;5014656;28;95478;-74
2022/06/24 03:05:58;;;;;;;7.05;3.25;;;;;;;;;;5008226;28;97194;-73
2022/06/24 03:08:26;;;;;;;9.57;3.47;;;;;;;;;;5007385;28;96238;-74
2022/06/24 03:10:52;;;;;;;10.48;3.70;;;;;;;;;;5025473;28;95810;-74
2022/06/24 03:13:19;;;;;;;4.63;3.20;;;;;;;;;;5015872;28;96235;-73
2022/06/24 03:15:48;;;;;;;6.00;3.30;;;;;;;;;;5023558;28;95424;-73
2022/06/24 03:18:15;;;;;;;11.25;3.38;;;;;;;;;;5016586;28;95567;-74
2022/06/24 03:20:41;;;;;;;8.82;4.53;;;;;;;;;;5014912;28;97223;-73
2022/06/24 03:23:11;;;;;;;18.77;5.18;;;;;;;;;;5022037;28;95314;-74
2022/06/24 03:25:38;;;;;;;7.07;3.97;;;;;;;;;;5012397;28;97249;-73
2022/06/24 03:28:04;;;;;;;8.93;3.95;;;;;;;;;;5012534;28;96135;-73
2022/06/24 03:30:32;;;;;;;10.00;4.20;;;;;;;;;;5010263;28;95555;-73
2022/06/24 03:32:59;;;;;;;8.30;4.20;;;;;;;;;;5014512;28;97060;-73
2022/06/24 03:35:26;;;;;;;8.25;4.78;;;;;;;;;;5020842;28;95289;-73
2022/06/24 03:37:52;;;;;;;7.25;4.30;;;;;;;;;;5009590;28;96949;-74
2022/06/24 03:40:19;;;;;;;8.15;4.18;;;;;;;;;;5013594;28;97398;-74
2022/06/24 03:42:45;;;;;;;7.43;4.38;;;;;;;;;;5012383;28;95714;-74
2022/06/24 03:45:12;;;;;;;10.80;4.45;;;;;;;;;;5023725;28;95998;-73
2022/06/24 03:47:38;;;;;;;9.10;4.43;;;;;;;;;;5013428;28;97307;-74
2022/06/24 03:50:05;;;;;;;10.50;4.65;;;;;;;;;;5023598;28;95734;-74
2022/06/24 03:52:31;;;;;;;7.95;4.70;;;;;;;;;;5004150;28;97543;-73
2022/06/24 03:54:58;;;;;;;9.43;5.00;;;;;;;;;;5031031;27;97254;-74
2022/06/24 03:57:24;;;;;;;11.35;4.85;;;;;;;;;;5003724;28;97153;-73
2022/06/24 03:59:51;;;;;;;8.55;4.28;;;;;;;;;;5013252;28;97707;-73
2022/06/24 04:02:18;;;;;;;10.65;4.90;;;;;;;;;;5019597;28;96001;-73
2022/06/24 04:04:45;;;;;;;9.30;4.10;;;;;;;;;;5013501;28;96843;-73
2022/06/24 04:07:11;;;;;;;12.68;4.53;;;;;;;;;;5017823;28;97335;-73
2022/06/24 04:09:37;;;;;;;13.38;4.43;;;;;;;;;;5018526;28;95666;-73
2022/06/24 04:12:04;;;;;;;10.98;4.93;;;;;;;;;;5019817;28;97016;-73
2022/06/24 04:17:15;;;;;;;6.53;4.03;;;;;;;;;;5026778;28;95837;-73
2022/06/24 04:19:42;;;;;;;8.75;3.92;;;;;;;;;;5022753;28;97398;-73
2022/06/24 04:22:08;;;;;;;10.15;4.30;;;;;;;;;;5010183;28;97017;-74
2022/06/24 04:24:35;;;;;;;9.40;4.30;;;;;;;;;;5006032;28;96821;-72
2022/06/24 04:27:01;;;;;;;11.10;4.30;;;;;;;;;;5011138;28;97658;-73
2022/06/24 04:29:28;;;;;;;15.45;3.97;;;;;;;;;;5008217;28;95784;-73
2022/06/24 04:31:54;;;;;;;8.95;3.95;;;;;;;;;;5017542;28;97119;-73
2022/06/24 04:34:23;;;;;;;10.98;3.90;;;;;;;;;;5012519;28;98006;-73
2022/06/24 04:36:50;;;;;;;9.57;4.03;;;;;;;;;;5020545;28;95315;-73
2022/06/24 04:39:16;;;;;;;7.10;4.18;;;;;;;;;;5018363;28;96908;-73
2022/06/24 04:41:42;;;;;;;8.80;4.32;;;;;;;;;;5006069;28;96128;-73
2022/06/24 20:37:15;;;;;;;35.13;18.40;;;;;;;;;;5051644;27;1304849;-71
2022/06/24 20:39:41;;;;;;;36.05;17.77;;;;;;;;;;5073950;27;97627;-70
2022/06/24 20:42:08;;;;;;;20.48;16.08;;;;;;;;;;5079262;27;95849;-71
2022/06/24 20:44:34;;;;;;;27.58;16.40;;;;;;;;;;5072689;27;96763;-70
2022/06/24 20:47:01;;;;;;;35.60;15.43;;;;;;;;;;5072638;27;97201;-70
2022/06/24 20:49:27;;;;;;;37.65;16.00;;;;;;;;;;5078888;27;95782;-74
2022/06/24 20:51:53;;;;;;;18.23;14.02;;;;;;;;;;5075577;27;96333;-70
2022/06/24 20:54:20;;;;;;;18.33;14.00;;;;;;;;;;5076588;27;97879;-73
2022/06/24 20:56:46;;;;;;;14.80;13.20;;;;;;;;;;5075602;27;95804;-71
2022/06/24 20:59:12;;;;;;;32.50;15.35;;;;;;;;;;5080338;27;97662;-71
2022/06/24 21:01:39;;;;;;;17.42;14.55;;;;;;;;;;5076910;27;95167;-72
2022/06/24 21:04:05;;;;;;;40.55;14.13;;;;;;;;;;5078429;27;97224;-71
2022/06/24 21:06:32;;;;;;;27.70;13.85;;;;;;;;;;5081802;27;98693;-70
2022/06/24 21:08:58;;;;;;;25.67;14.13;;;;;;;;;;5076145;27;96615;-72
2022/06/24 21:11:24;;;;;;;15.18;13.25;;;;;;;;;;5069307;27;96705;-71
2022/06/24 21:13:51;;;;;;;20.50;12.65;;;;;;;;;;5076790;27;96801;-70
2022/06/24 21:16:17;;;;;;;15.57;13.15;;;;;;;;;;5072108;27;95880;-71
2022/06/24 21:18:43;;;;;;;19.25;13.55;;;;;;;;;;5078683;27;96697;-72
2022/06/24 21:21:10;;;;;;;21.30;12.95;;;;;;;;;;5074373;27;95696;-72
2022/06/24 21:23:38;;;;;;;19.83;13.70;;;;;;;;;;5078812;27;96186;-70
2022/06/24 21:26:06;;;;;;;21.38;14.30;;;;;;;;;;5082730;27;97472;-73
2022/06/24 21:28:36;;;;;;;20.88;14.23;;;;;;;;;;5070388;27;95286;-71
2022/06/24 21:31:02;;;;;;;15.98;13.70;;;;;;;;;;5079213;27;95772;-72
2022/06/24 21:33:29;;;;;;;19.30;14.05;;;;;;;;;;5071826;27;97415;-71
2022/06/24 21:35:56;;;;;;;16.70;14.02;;;;;;;;;;5080146;27;95330;-71
2022/06/24 21:38:22;;;;;;;22.60;13.65;;;;;;;;;;5078332;27;97940;-72
2022/06/24 21:40:49;;;;;;;18.92;14.02;;;;;;;;;;5074556;27;97237;-71
2022/06/24 21:43:15;;;;;;;18.23;14.57;;;;;;;;;;5072979;27;97329;-71
2022/06/24 21:45:42;;;;;;;24.33;15.55;;;;;;;;;;5079274;27;99285;-73
2022/06/24 21:48:09;;;;;;;20.90;14.63;;;;;;;;;;5059750;27;95324;-70
2022/06/24 21:50:35;;;;;;;33.25;16.05;;;;;;;;;;5064640;27;97560;-72
2022/06/24 21:53:02;;;;;;;32.42;15.57;;;;;;;;;;5065004;27;96237;-74
2022/06/24 21:55:28;;;;;;;31.50;16.27;;;;;;;;;;5061300;27;95922;-72
2022/06/24 21:57:55;;;;;;;24.65;16.60;;;;;;;;;;5052767;27;95642;-73
2022/06/24 22:00:21;;;;;;;21.13;16.50;;;;;;;;;;5065872;27;96619;-72
2022/06/24 22:02:48;;;;;;;20.98;16.90;;;;;;;;;;5067311;27;95303;-72
2022/06/24 22:05:14;;;;;;;23.50;17.70;;;;;;;;;;5064471;27;97637;-72
2022/06/24 22:07:42;;;;;;;22.65;17.20;;;;;;;;;;5057804;27;95657;-72
2022/06/24 22:10:08;;;;;;;26.33;18.52;;;;;;;;;;5054841;27;95984;-72
2022/06/24 22:12:35;;;;;;;23.35;17.65;;;;;;;;;;5058940;27;96170;-73
2022/06/24 22:15:02;;;;;;;26.17;17.88;;;;;;;;;;5051665;27;96272;-72
2022/06/24 22:17:47;;;;;;;28.67;17.80;;;;;;;;;;5061729;27;96049;-73
2022/06/24 22:20:14;;;;;;;27.17;18.40;;;;;;;;;;5054322;27;97613;-72
2022/06/24 22:22:40;;;;;;;27.83;18.52;;;;;;;;;;5064973;27;95427;-73
2022/06/24 22:25:07;;;;;;;45.63;19.58;;;;;;;;;;5068215;27;96285;-71
2022/06/24 22:27:33;;;;;;;38.28;19.73;;;;;;;;;;5065397;27;96726;-73
2022/06/24 22:30:01;;;;;;;33.17;18.90;;;;;;;;;;5061776;27;96681;-73
2022/06/24 22:32:27;;;;;;;32.15;19.42;;;;;;;;;;5062600;27;96522;-71
2022/06/24 22:34:53;;;;;;;30.13;19.75;;;;;;;;;;5061457;27;96067;-71
2022/06/24 22:37:20;;;;;;;33.75;19.30;;;;;;;;;;5062595;27;96669;-72
2022/06/24 22:39:47;;;;;;;51.17;20.75;;;;;;;;;;5056240;27;97244;-72
2022/06/24 22:42:13;;;;;;;60.25;20.48;;;;;;;;;;5054929;27;95501;-72
2022/06/24 22:44:40;;;;;;;28.30;18.23;;;;;;;;;;5056626;27;97557;-74
2022/06/24 22:47:06;;;;;;;23.70;17.80;;;;;;;;;;5065068;27;95680;-73
2022/06/24 22:49:33;;;;;;;23.67;17.98;;;;;;;;;;5056068;27;96711;-72
2022/06/24 22:51:59;;;;;;;29.10;17.52;;;;;;;;;;5057190;27;97504;-71
2022/06/24 22:54:25;;;;;;;26.92;17.80;;;;;;;;;;5064282;27;96116;-72
2022/06/24 22:56:52;;;;;;;37.40;18.05;;;;;;;;;;5068085;27;95764;-73
2022/06/24 22:59:18;;;;;;;21.83;16.48;;;;;;;;;;5061515;27;96696;-73
2022/06/24 23:01:45;;;;;;;24.63;16.77;;;;;;;;;;5066803;27;96160;-72
2022/06/24 23:04:11;;;;;;;22.73;15.93;;;;;;;;;;5056007;27;96748;-71
2022/06/24 23:06:37;;;;;;;19.35;14.93;;;;;;;;;;5053978;27;97277;-72
2022/06/24 23:09:06;;;;;;;18.77;14.23;;;;;;;;;;5063855;27;96790;-72
2022/06/24 23:11:33;;;;;;;25.50;14.75;;;;;;;;;;5057790;27;97297;-72
2022/06/24 23:14:03;;;;;;;16.95;13.82;;;;;;;;;;5065183;27;96269;-73
2022/06/24 23:16:30;;;;;;;16.98;12.40;;;;;;;;;;5065836;27;95845;-73
2022/06/24 23:18:56;;;;;;;18.55;12.75;;;;;;;;;;5057839;27;97293;-72
2022/06/24 23:21:24;;;;;;;20.30;12.55;;;;;;;;;;5056888;27;95731;-73
2022/06/24 23:23:51;;;;;;;20.48;11.82;;;;;;;;;;5063583;27;96670;-73
2022/06/24 23:26:18;;;;;;;15.35;12.02;;;;;;;;;;5066390;27;97237;-73
2022/06/24 23:28:44;;;;;;;16.02;11.32;;;;;;;;;;5060441;27;95655;-72
2022/06/24 23:31:14;;;;;;;16.52;11.77;;;;;;;;;;5052808;27;96535;-73
2022/06/24 23:33:41;;;;;;;17.25;11.43;;;;;;;;;;5062855;27;96765;-73
2022/06/24 23:36:07;;;;;;;16.50;11.77;;;;;;;;;;5062297;27;97071;-71
2022/06/24 23:38:33;;;;;;;14.55;10.73;;;;;;;;;;5061257;27;97392;-73
2022/06/24 23:41:00;;;;;;;14.60;10.68;;;;;;;;;;5053016;27;96000;-73
2022/06/24 23:43:26;;;;;;;19.48;10.95;;;;;;;;;;5064593;27;96663;-72
2022/06/24 23:45:53;;;;;;;14.20;10.57;;;;;;;;;;5064130;27;97446;-72
2022/06/24 23:53:50;;;;;;;14.10;9.60;;;;;;;;;;5064284;27;96572;-72
2022/06/24 23:56:17;;;;;;;12.48;9.35;;;;;;;;;;5063553;27;97005;-72
2022/06/24 23:58:47;;;;;;;13.25;9.00;;;;;;;;;;5059650;27;97228;-72
